Pagrindinis puslapis
METAR-TAF:

METAR-TAF

Oro uostai :

Krabi, Tailandas

platuma: 08-06-03N, ilguma: 098-59-05E, Aukštis: 25 m

Dabartinis oras

Ataskaita buvo paskelbta 33 minutes, ne 08:00 UTC
Vėjas 6 kt iš Rytų/Šiaurės Rytų, svyruoja nuo Šiaurės ir Rytų/Pietryčių
Temperatūra 32°C
Drėgmė 59%
Slėgis 1008 hPa
Matomumas 10 km arba daugiau
Su prošvaistėmis ne aukštis 2000 ft

METAR: VTSG 170800Z 07006KT 010V120 9999 BKN020 32/23 Q1008 NOSIG

Laikas: 15:33 (08:33 UTC)

Prognozė

Ataskaita buvo paskelbta 3 valandos ir 33 minutes, ne 05:00 UTC
Prognozė galioja nuo 17 metu 06 UTC su 18 metu 06 UTC
Vėjas 8 kt iš Rytų/Šiaurės Rytų
Matomumas 10 km arba daugiau
Mažai debesys ne aukštis 2000 ft

TAF: VTSG 170500Z 1706/1806 06008KT 9999 FEW020

Orai ataskaitas ir orų prognozės (METAR, TAF).

turimą stotys yra geltonos ir raudonos taškus žemėlapyje.

Perkelti pele per norėdami pamatyti stoties vardą.

Tada spustelėkite, norėdami matyti oro stebėjimo ir prognozės.

Norėdami pakeisti žemėlapį: spustelėkite ant žalios mygtukų su juodo kryžiaus žemyn,; žalią mygtuką su brūkšneliu, jei norite nutolinti; arba žalių rodyklių gretimoms žemėlapius.


METAR-TAF: